Portada
METAR-TAF:

METAR-TAF

Aeroports :

Retalhuleu, Guatemala

latitud: 14-32N, longitud: 091-40W, altitud: 239 m

Observació

L'informe es va fer fa 27 minuts, a les 14:00 UTC
Vent calma
Temperatura 23°C
Humitat 78%
Pressió 1013 hPa
Visibilitat 10 km o més
sense núvols per sota de 1500 mi sense presència de cumulonimbus.

METAR: MGRT 181400Z 00000KT CAVOK 23/19 Q1013 A2991 VOL,SANTA MARIA Y SANTIAGUITO EN ACTIVIDAD

Hora: 08:27 (14:27 UTC)


TAF: manca

Observacions i pronòstics meteorològics de més de 4000 aeroports (METAR i TAF).

Les estacions disponibles són els punts grocs i vermells al mapa.

Posi el ratolí al punt desitjat per veure el nom de l'estació.

Feu clic per veure les observacions i els pronòstics meteorològics.

Per canviar el mapa: feu clic els botons verds amb una creu de color negre per apropar; al botó verd amb un guió per allunyar la imatge; o en les fletxes verdes per a mapes adjacents.


METAR-TAF: